Monday, December 18, 2017, 5:42 AM EST
Back to Local

KBID, Block Island, Block Island State Airport

Location: Block Island, RI, United States Lat: 41.167
Local Time: 5:42 AM EST (10:42 GMT) Lon: -71.567
Time Zone: US/Eastern Elev: 108 ft

Show me the last for .
Show Coded

Time T Td Feel RH Dir Speed Gust Alt SLP Vis Weather Sky Remarks
2017-12-18 04:56 34 22 31 60 110° 3 - 30.18 30.19 10 OVC026 None
2017-12-18 03:56 34 20 31 55 100° 3 - 30.19 30.21 10 OVC024 None
2017-12-18 02:56 33 17 28 51 80° 6 - 30.21 30.22 10 OVC026 None
2017-12-18 02:24 34 16 31 47 90° 3 - 30.22 - 10 BKN026 OVC030 None
2017-12-18 01:56 32 17 27 53 50° 5 - 30.22 30.24 10 FEW026 OVC120 None
2017-12-18 00:56 31 15 27 51 20° 3 - 30.22 30.23 10 FEW110 6-hr Min Temp (1am): 30.0°F
6-hr Max Temp (1am): 30.9°F
2017-12-17 23:56 31 15 27 51 350° 3 - 30.24 30.25 10 SCT070 OVC095 None
2017-12-17 22:56 30 14 - 50 - Calm - 30.26 30.27 10 SCT090 BKN110 24-hr Min Temp (11pm): 26.1°F
24-hr Max Temp (11pm): 32.0°F
2017-12-17 21:56 30 15 26 53 30° 3 - 30.27 30.28 10 OVC110 None
2017-12-17 20:56 31 13 25 46 340° 6 - 30.28 30.29 10 FEW110 None
2017-12-17 19:56 30 13 24 48 330° 6 - 30.28 30.29 10 CLR None
2017-12-17 18:56 30 14 22 50 340° 8 - 30.27 30.29 10 CLR 6-hr Min Temp (7pm): 30.0°F
6-hr Max Temp (7pm): 32.0°F
2017-12-17 17:56 30 13 22 48 330° 9 - 30.26 30.27 10 CLR None
2017-12-17 16:56 31 11 25 42 330° 6 - 30.26 30.27 10 CLR None
2017-12-17 15:56 31 9 23 39 330° 9 - 30.24 30.26 10 CLR None
2017-12-17 14:56 32 8 25 35 300° 8 - 30.23 30.24 10 CLR None
2017-12-17 13:56 32 11 25 40 310° 8 - 30.23 30.24 10 OVC070 None
2017-12-17 12:56 32 10 25 39 280° 8 - 30.25 30.27 10 CLR 6-hr Min Temp (1pm): 26.1°F
6-hr Max Temp (1pm): 32.0°F
2017-12-17 11:56 31 10 22 41 320° 10 - 30.25 30.26 10 CLR None
2017-12-17 10:56 30 13 21 48 320° 12 - 30.28 30.29 10 CLR None
2017-12-17 09:56 29 14 17 53 330° 10 17 30.29 30.30 10 CLR None
2017-12-17 08:56 27 13 14 54 340° 13 20 30.27 30.28 10 CLR None
2017-12-17 07:56 27 13 14 54 330° 10 20 30.27 30.28 10 CLR None
2017-12-17 06:56 26 13 12 56 330° 13 21 30.26 30.27 10 CLR 6-hr Min Temp (7am): 26.1°F
6-hr Max Temp (7am): 28.0°F
2017-12-17 05:56 27 15 12 60 330° 16 23 30.26 30.27 10 CLR None

Support USWX by starting your Amazon purchase here.